»·PEaware :: SWA789 KLAS-KSNA

SWA789 :: KLAS-KSNA

FLIGHT INFORMATION

Flight Status: Arrived
Operator:
Southwest Airlines
More flights by this operator :: More flights under this callsign
Pilot: Sanjiv S. (4490)
Aircraft: BOEING 737-800
(B738)
More flights by this aircraft type
Origin: KLAS McCarran Intl
United States
Destination: KSNA John Wayne-Orange Co
United States
More flights between these airports :: More routes between these airports
Route: +BOACH8 WHIGG FEYLA DSNEE4
File this flight plan on PilotEdge
Remarks:
Altitude:
(Current/Filed)
26,000ft
Speed:
(Current/Filed)
425kts
Departed: 18-Oct-18 07:25 PM
Arrived: 18-Oct-18 08:27 PM
Distance/Time
Traveled:
197nm/1:01
Distance/Time
To Go:
Arrived

Flight Plot

Page will automatically refresh every two minutes.

Flight plan parsing failed; only flown route is shown


Map Options




Map Legend


Flown Route
Filed Route
Departure Airport
Arrival Airport
Navaid (VOR, NDB)
Fix

Horizontal Profiles

Position Reports

Time Latitude Longitude Heading Altitude Ground
Speed
18-Oct-18 18:53 36.080973 -115.147753 56 2097ft 0kts
18-Oct-18 18:54 36.080973 -115.147753 56 2097ft 0kts
18-Oct-18 18:55 36.080973 -115.147753 56 2097ft 0kts
18-Oct-18 18:56 36.080973 -115.147753 56 2097ft 0kts
18-Oct-18 18:57 36.080973 -115.147753 56 2097ft 0kts
18-Oct-18 18:58 36.080973 -115.147753 56 2097ft 0kts
18-Oct-18 18:59 36.080973 -115.147753 56 2097ft 0kts
18-Oct-18 19:00 36.080973 -115.147753 56 2097ft 0kts
18-Oct-18 19:01 36.080973 -115.147753 56 2097ft 0kts
18-Oct-18 19:02 36.080973 -115.147753 56 2097ft 0kts
18-Oct-18 19:03 36.080973 -115.147753 56 2097ft 0kts
18-Oct-18 19:04 36.080973 -115.147753 56 2097ft 0kts
18-Oct-18 19:05 36.080973 -115.147753 56 2097ft 0kts
18-Oct-18 19:06 36.080973 -115.147753 56 2097ft 0kts
18-Oct-18 19:07 36.080973 -115.147753 56 2097ft 0kts
18-Oct-18 19:08 36.080973 -115.147753 56 2097ft 0kts
18-Oct-18 19:09 36.080973 -115.147753 56 2097ft 0kts
18-Oct-18 19:10 36.080973 -115.147753 56 2097ft 0kts
18-Oct-18 19:11 36.080973 -115.147753 56 2097ft 0kts
18-Oct-18 19:12 36.080973 -115.147753 56 2097ft 0kts
18-Oct-18 19:13 36.080973 -115.147753 56 2097ft 0kts
18-Oct-18 19:14 36.080973 -115.147753 56 2097ft 0kts
18-Oct-18 19:15 36.080954 -115.147786 56 2097ft 1kts
18-Oct-18 19:16 36.080685 -115.148279 59 2099ft 1kts
18-Oct-18 19:17 36.080591 -115.148496 64 2100ft 0kts
18-Oct-18 19:18 36.080591 -115.148496 64 2100ft 0kts
18-Oct-18 19:19 36.080591 -115.148496 64 2100ft 0kts
18-Oct-18 19:20 36.080640 -115.148362 66 2100ft 0kts
18-Oct-18 19:21 36.079923 -115.147848 158 2099ft 0kts
18-Oct-18 19:22 36.079922 -115.147847 158 2099ft 0kts
18-Oct-18 19:23 36.079802 -115.147785 156 2099ft 1kts
18-Oct-18 19:24 36.079672 -115.147714 155 2100ft 1kts
18-Oct-18 19:25 36.078252 -115.147173 165 2102ft 8kts
18-Oct-18 19:26 36.077526 -115.140440 90 2081ft 38kts
18-Oct-18 19:27 36.077527 -115.127375 90 2045ft 45kts
18-Oct-18 19:28 36.077409 -115.121443 141 2037ft 0kts
18-Oct-18 19:29 36.077409 -115.121443 141 2037ft 0kts
18-Oct-18 19:30 36.076518 -115.121348 223 2038ft 9kts
18-Oct-18 19:31 36.076420 -115.123376 270 2039ft 49kts
18-Oct-18 19:32 36.079063 -115.156883 287 3443ft 139kts
18-Oct-18 19:33 36.077515 -115.213265 262 4448ft 238kts
18-Oct-18 19:34 36.041434 -115.274231 206 6863ft 275kts
18-Oct-18 19:35 35.976153 -115.287929 181 8795ft 283kts
18-Oct-18 19:36 35.902565 -115.289676 181 11251ft 315kts
18-Oct-18 19:37 35.829591 -115.291156 181 13847ft 329kts
18-Oct-18 19:38 35.747396 -115.293176 181 16695ft 343kts
18-Oct-18 19:39 35.663054 -115.311658 203 19495ft 358kts
18-Oct-18 19:40 35.600879 -115.385598 244 22035ft 372kts
18-Oct-18 19:41 35.544535 -115.471805 228 24288ft 386kts
18-Oct-18 19:42 35.481091 -115.559617 228 26170ft 396kts
18-Oct-18 19:43 35.413767 -115.650418 227 26189ft 429kts
18-Oct-18 19:44 35.355938 -115.728199 227 26183ft 439kts
18-Oct-18 19:45 35.285707 -115.822782 227 26183ft 439kts
18-Oct-18 19:46 35.218848 -115.912078 226 26183ft 439kts
18-Oct-18 19:47 35.155126 -115.992149 225 26182ft 439kts
18-Oct-18 19:48 35.083681 -116.081836 225 26183ft 439kts
18-Oct-18 19:49 35.014874 -116.168177 225 26167ft 401kts
18-Oct-18 19:50 34.949611 -116.250225 226 26183ft 384kts
18-Oct-18 19:51 34.893739 -116.320150 225 26184ft 384kts
18-Oct-18 19:52 34.847112 -116.379119 226 25985ft 388kts
18-Oct-18 19:53 34.785329 -116.457799 226 23940ft 377kts
18-Oct-18 19:54 34.742441 -116.512491 226 23758ft 371kts
18-Oct-18 19:55 34.683759 -116.585290 220 23306ft 369kts
18-Oct-18 19:56 34.621622 -116.645213 219 22523ft 363kts
18-Oct-18 19:57 34.600276 -116.666050 218 22250ft 362kts
18-Oct-18 19:58 34.544613 -116.720429 218 21540ft 358kts
18-Oct-18 19:59 34.487703 -116.777932 223 19919ft 356kts
18-Oct-18 20:00 34.433706 -116.841291 223 18369ft 346kts
18-Oct-18 20:01 34.383440 -116.899709 223 17004ft 335kts
18-Oct-18 20:02 34.335214 -116.955675 223 15744ft 327kts
18-Oct-18 20:03 34.287265 -117.010915 223 14494ft 321kts
18-Oct-18 20:04 34.234573 -117.058267 210 14002ft 319kts
18-Oct-18 20:05 34.178791 -117.097542 211 13960ft 321kts
18-Oct-18 20:06 34.120106 -117.130127 203 12710ft 301kts
18-Oct-18 20:07 34.060723 -117.161945 204 12454ft 299kts
18-Oct-18 20:08 34.004594 -117.192617 210 12126ft 302kts
18-Oct-18 20:09 33.959580 -117.246191 231 10937ft 306kts
18-Oct-18 20:10 33.920231 -117.302741 229 10278ft 289kts
18-Oct-18 20:11 33.893972 -117.340034 229 9776ft 280kts
18-Oct-18 20:12 33.863942 -117.382501 229 9073ft 276kts
18-Oct-18 20:13 33.831825 -117.428919 237 8287ft 261kts
18-Oct-18 20:14 33.816920 -117.474946 252 7997ft 246kts
18-Oct-18 20:15 33.807465 -117.520954 275 7839ft 239kts
18-Oct-18 20:16 33.819877 -117.566813 291 7416ft 235kts
18-Oct-18 20:17 33.833866 -117.609381 291 6677ft 233kts
18-Oct-18 20:18 33.847978 -117.652229 291 5908ft 232kts
18-Oct-18 20:19 33.861074 -117.691815 291 5085ft 236kts
18-Oct-18 20:20 33.874072 -117.737353 270 4082ft 229kts
18-Oct-18 20:21 33.857152 -117.772286 202 3997ft 192kts
18-Oct-18 20:22 33.824418 -117.770878 183 3954ft 192kts
18-Oct-18 20:23 33.794962 -117.789124 220 3182ft 193kts
18-Oct-18 20:24 33.768792 -117.809512 208 2530ft 189kts
18-Oct-18 20:25 33.740023 -117.828076 205 1359ft 191kts
18-Oct-18 20:26 33.712608 -117.845001 207 808ft 160kts
18-Oct-18 20:27 33.690048 -117.859617 207 287ft 132kts
18-Oct-18 20:28 33.672220 -117.871040 207 64ft 44kts
18-Oct-18 20:29 33.669158 -117.871665 126 64ft 0kts
18-Oct-18 20:30 33.669126 -117.870957 55 64ft 12kts
18-Oct-18 20:31 33.671356 -117.868605 32 64ft 25kts
18-Oct-18 20:32 33.675034 -117.865847 26 64ft 17kts
18-Oct-18 20:33 33.675299 -117.864946 115 64ft 4kts
18-Oct-18 20:34 33.675286 -117.864916 115 64ft 0kts

Navigation Log

Ident Type
Flight plan parsing failed, navigation log unavailable